»·PEaware :: UAL691 KSFO-KSAN

UAL691 :: KSFO-KSAN

FLIGHT INFORMATION

Flight Status: Arrived
Operator:
United Airlines
More flights by this operator :: More flights under this callsign
Pilot: Alfredo R. (12181)
Aircraft: BOEING 737-800
(B738)
More flights by this aircraft type
Origin: KSFO San Francisco Intl
United States
Destination: KSAN San Diego Intl-Lindbergh
United States
More flights between these airports :: More routes between these airports
Route: OFFSH1 MCKEY LAX COMIX1
File this flight plan on PilotEdge
Remarks:
Altitude:
(Current/Filed)
35,000ft
Speed:
(Current/Filed)
425kts
Departed: 16-Apr-18 06:50 PM
Arrived: 16-Apr-18 08:02 PM
Distance/Time
Traveled:
387nm/1:12
Distance/Time
To Go:
Arrived

Flight Plot

Page will automatically refresh every two minutes.

Flight plan parsing failed; only flown route is shown


Map Options




Map Legend


Flown Route
Filed Route
Departure Airport
Arrival Airport
Navaid (VOR, NDB)
Fix

Horizontal Profiles

Position Reports

Time Latitude Longitude Heading Altitude Ground
Speed
16-Apr-18 18:22 37.619186 -122.383517 291 30ft 0kts
16-Apr-18 18:23 37.619186 -122.383517 291 30ft 0kts
16-Apr-18 18:24 37.619186 -122.383517 291 30ft 0kts
16-Apr-18 18:25 37.619186 -122.383517 291 30ft 0kts
16-Apr-18 18:26 37.619186 -122.383517 291 30ft 0kts
16-Apr-18 18:27 37.619186 -122.383517 291 30ft 0kts
16-Apr-18 18:28 37.619186 -122.383517 291 30ft 0kts
16-Apr-18 18:29 37.619186 -122.383517 291 30ft 0kts
16-Apr-18 18:30 37.619186 -122.383517 291 30ft 0kts
16-Apr-18 18:31 37.619186 -122.383517 291 30ft 0kts
16-Apr-18 18:32 37.619186 -122.383517 291 31ft 0kts
16-Apr-18 18:33 37.619103 -122.383244 291 31ft 2kts
16-Apr-18 18:34 37.618693 -122.383096 27 31ft 2kts
16-Apr-18 18:35 37.618425 -122.383274 28 30ft 0kts
16-Apr-18 18:36 37.618425 -122.383274 28 30ft 0kts
16-Apr-18 18:37 37.618450 -122.383256 28 30ft 0kts
16-Apr-18 18:38 37.619157 -122.382767 28 30ft 2kts
16-Apr-18 18:39 37.619271 -122.382689 28 30ft 0kts
16-Apr-18 18:40 37.619582 -122.382456 44 30ft 2kts
16-Apr-18 18:41 37.619428 -122.381403 121 30ft 5kts
16-Apr-18 18:42 37.618238 -122.378464 112 27ft 13kts
16-Apr-18 18:43 37.616401 -122.373232 117 14ft 16kts
16-Apr-18 18:44 37.614205 -122.368605 132 11ft 15kts
16-Apr-18 18:45 37.611919 -122.363648 118 8ft 17kts
16-Apr-18 18:46 37.610628 -122.359419 57 8ft 6kts
16-Apr-18 18:47 37.610931 -122.359085 32 7ft 0kts
16-Apr-18 18:48 37.611545 -122.358876 359 8ft 6kts
16-Apr-18 18:49 37.613454 -122.362573 296 9ft 56kts
16-Apr-18 18:50 37.631802 -122.404029 296 1138ft 172kts
16-Apr-18 18:51 37.655666 -122.462125 293 3296ft 216kts
16-Apr-18 18:52 37.684174 -122.535445 269 5856ft 247kts
16-Apr-18 18:53 37.630970 -122.585056 182 8357ft 286kts
16-Apr-18 18:54 37.551243 -122.565851 169 10560ft 311kts
16-Apr-18 18:55 37.468322 -122.518313 159 12650ft 338kts
16-Apr-18 18:56 37.375985 -122.518275 190 15048ft 342kts
16-Apr-18 18:57 37.296216 -122.529227 189 16972ft 353kts
16-Apr-18 18:58 37.180334 -122.544114 190 19418ft 369kts
16-Apr-18 18:59 37.076809 -122.557112 191 21390ft 380kts
16-Apr-18 19:00 36.969228 -122.570148 190 22781ft 406kts
16-Apr-18 19:01 36.851656 -122.544513 177 24043ft 441kts
16-Apr-18 19:02 36.729922 -122.512357 178 25470ft 454kts
16-Apr-18 19:03 36.604219 -122.479685 179 26692ft 469kts
16-Apr-18 19:04 36.475855 -122.446523 179 28011ft 477kts
16-Apr-18 19:05 36.360578 -122.354232 127 29139ft 528kts
16-Apr-18 19:06 36.269476 -122.211908 133 30802ft 519kts
16-Apr-18 19:07 36.177937 -122.077682 135 32374ft 511kts
16-Apr-18 19:08 36.086719 -121.945192 135 33766ft 502kts
16-Apr-18 19:09 35.996878 -121.815466 136 34982ft 495kts
16-Apr-18 19:10 35.904863 -121.683456 136 35157ft 526kts
16-Apr-18 19:11 35.808511 -121.545672 136 35092ft 531kts
16-Apr-18 19:12 35.713651 -121.410480 137 35102ft 532kts
16-Apr-18 19:13 35.616845 -121.273001 137 35081ft 532kts
16-Apr-18 19:14 35.520712 -121.136816 138 35087ft 527kts
16-Apr-18 19:15 35.430102 -120.995131 130 35085ft 534kts
16-Apr-18 19:16 35.346747 -120.848302 131 35133ft 525kts
16-Apr-18 19:17 35.262947 -120.705874 132 35144ft 526kts
16-Apr-18 19:18 35.178518 -120.563422 133 35149ft 517kts
16-Apr-18 19:19 35.094256 -120.421076 133 35138ft 515kts
16-Apr-18 19:20 35.011172 -120.280322 133 35130ft 512kts
16-Apr-18 19:21 34.928887 -120.140594 134 35129ft 506kts
16-Apr-18 19:22 34.847233 -120.001911 134 35100ft 507kts
16-Apr-18 19:23 34.765721 -119.863072 134 35104ft 503kts
16-Apr-18 19:24 34.685259 -119.725722 134 35107ft 493kts
16-Apr-18 19:25 34.606285 -119.590818 134 35100ft 494kts
16-Apr-18 19:26 34.527228 -119.455427 134 35103ft 493kts
16-Apr-18 19:27 34.448423 -119.320209 134 35049ft 493kts
16-Apr-18 19:28 34.370104 -119.185379 135 35055ft 489kts
16-Apr-18 19:29 34.292401 -119.051461 135 35062ft 486kts
16-Apr-18 19:30 34.215511 -118.918933 134 35067ft 482kts
16-Apr-18 19:31 34.139434 -118.787486 134 35059ft 473kts
16-Apr-18 19:32 34.064215 -118.657441 135 34651ft 479kts
16-Apr-18 19:33 33.988538 -118.526167 134 32864ft 475kts
16-Apr-18 19:34 33.911657 -118.398189 143 30924ft 468kts
16-Apr-18 19:35 33.823590 -118.287028 144 29045ft 475kts
16-Apr-18 19:36 33.734309 -118.171757 143 27040ft 468kts
16-Apr-18 19:37 33.646390 -118.056954 142 25065ft 468kts
16-Apr-18 19:38 33.560725 -117.944897 142 23055ft 447kts
16-Apr-18 19:39 33.474827 -117.843078 146 21066ft 429kts
16-Apr-18 19:40 33.391638 -117.744357 145 19081ft 416kts
16-Apr-18 19:41 33.311769 -117.647292 145 17119ft 402kts
16-Apr-18 19:42 33.232491 -117.558255 157 14886ft 361kts
16-Apr-18 19:43 33.150399 -117.492020 156 13351ft 355kts
16-Apr-18 19:44 33.069967 -117.425807 154 12043ft 354kts
16-Apr-18 19:45 32.993197 -117.361650 153 10805ft 313kts
16-Apr-18 19:46 32.941022 -117.282970 121 9573ft 304kts
16-Apr-18 19:47 32.906920 -117.193247 121 8317ft 294kts
16-Apr-18 19:48 32.875267 -117.107414 121 7093ft 275kts
16-Apr-18 19:49 32.844716 -117.027022 121 5900ft 262kts
16-Apr-18 19:50 32.814822 -116.950566 120 4916ft 247kts
16-Apr-18 19:51 32.786154 -116.877608 120 4919ft 243kts
16-Apr-18 19:52 32.735650 -116.851580 190 4466ft 199kts
16-Apr-18 19:53 32.689154 -116.868756 216 3915ft 165kts
16-Apr-18 19:54 32.671014 -116.914929 274 3918ft 158kts
16-Apr-18 19:55 32.681538 -116.967132 279 3315ft 162kts
16-Apr-18 19:56 32.691881 -117.017813 280 2624ft 155kts
16-Apr-18 19:57 32.704266 -117.065770 282 1902ft 149kts
16-Apr-18 19:58 32.713373 -117.112569 288 1265ft 133kts
16-Apr-18 19:59 32.724244 -117.152140 288 663ft 128kts
16-Apr-18 20:00 32.733677 -117.190099 286 25ft 71kts
16-Apr-18 20:01 32.735030 -117.200029 288 25ft 16kts
16-Apr-18 20:02 32.735876 -117.203720 266 25ft 8kts
16-Apr-18 20:03 32.734952 -117.204225 175 25ft 3kts
16-Apr-18 20:04 32.734717 -117.204205 176 25ft 0kts
16-Apr-18 20:05 32.734717 -117.204205 176 25ft 0kts

Navigation Log

Ident Type
Flight plan parsing failed, navigation log unavailable